Terminal Aerodrome Forecast
Issued by NWS

Home | Current Version | Previous Version | Graphics & Text | Print | Product List | Glossary On
Versions: 1 2 3 4 5 6 7 8 9 10 11 12 13 14 15 16 17 18
603
FTUS43 KUNR 200743 AAA
TAFGCC
TAF AMD
KGCC 200743Z 2008/2106 17012KT P6SM OVC028
     FM201200 17014KT P6SM BKN060
     FM201700 16018G25KT P6SM FEW250=

USA.gov is the U.S. government's official web portal to all federal, state and local government web resources and services.